Terminal Aerodrome Forecast
Issued by NWS Sterling, VA

Home | Current Version | Previous Version | Text Only | Print | Product List | Glossary On
Versions: 1 2 3 4 5 6 7 8 9 10 11 12 13 14 15 16 17 18 19 20 21 22 23 24
573
FTUS41 KLWX 240339 AAA
TAFBWI
TAF AMD
KBWI 240339Z 2404/2506 VRB03KT 5SM SHRA VCTS BKN060CB
      TEMPO 2404/2406 VRB10KT 2SM TSRA BR BKN030CB
     FM240600 VRB03KT P6SM BKN050
     FM241200 27005KT P6SM SCT250
     FM241400 28007KT P6SM SCT040
     FM250400 34004KT P6SM SCT060=

USA.gov is the U.S. government's official web portal to all federal, state and local government web resources and services.